Time;durP1;ratioP1;P1;durP2;ratioP2;P2;SDS_P1;SDS_P2;PMS_P1;PMS_P2;Temp;Humidity;BMP_temperature;BMP_pressure;BME280_temperature;BME280_humidity;BME280_pressure;Samples;Min_cycle;Max_cycle;Signal;HPM_P1;HPM_P2
2023/05/26 00:00:18;;;;;;;34.13;6.97;;;7.40;99.90;;;;;;4980261;28;20557;-80
2023/05/26 00:02:47;;;;;;;31.67;5.53;;;7.40;99.90;;;;;;4975097;28;20033;-79
2023/05/26 00:05:16;;;;;;;26.88;5.90;;;7.30;99.90;;;;;;4974918;28;20169;-79
2023/05/26 00:07:43;;;;;;;25.90;5.78;;;7.20;99.90;;;;;;4978511;28;20046;-79
2023/05/26 00:10:10;;;;;;;27.48;7.00;;;7.10;99.90;;;;;;4998200;28;20052;-79
2023/05/26 00:12:36;;;;;;;28.55;6.40;;;7.10;99.90;;;;;;4971391;28;20054;-79
2023/05/26 00:15:02;;;;;;;28.13;5.97;;;7.20;99.90;;;;;;4952755;28;20133;-79
2023/05/26 00:17:28;;;;;;;25.95;5.20;;;7.10;99.90;;;;;;4968318;28;20042;-79
2023/05/26 00:19:54;;;;;;;25.55;5.35;;;7.10;99.90;;;;;;4961770;28;20034;-79
2023/05/26 00:22:19;;;;;;;36.50;6.97;;;7.10;99.90;;;;;;4975282;28;20117;-79
2023/05/26 00:24:46;;;;;;;26.10;6.03;;;7.10;99.90;;;;;;4974471;28;20046;-79
2023/05/26 00:27:12;;;;;;;24.00;6.28;;;7.10;99.90;;;;;;4974704;28;20046;-79
2023/05/26 00:29:37;;;;;;;27.23;5.93;;;7.00;99.90;;;;;;4975361;28;20541;-78
2023/05/26 00:32:06;;;;;;;29.35;7.00;;;7.00;99.90;;;;;;4973932;28;20046;-79
2023/05/26 00:34:35;;;;;;;34.30;5.65;;;7.10;99.90;;;;;;4972619;28;20045;-79
2023/05/26 00:37:01;;;;;;;26.10;6.20;;;7.00;99.90;;;;;;4972509;28;20047;-79
2023/05/26 00:39:28;;;;;;;34.42;7.18;;;7.00;99.90;;;;;;4972435;28;20046;-79
2023/05/26 00:41:54;;;;;;;35.60;6.40;;;7.00;99.90;;;;;;4962324;28;20038;-79
2023/05/26 00:44:22;;;;;;;29.60;6.50;;;7.00;99.90;;;;;;4976626;28;20045;-79
2023/05/26 00:46:49;;;;;;;30.90;6.72;;;6.90;99.90;;;;;;4976427;28;20298;-79
2023/05/26 00:49:14;;;;;;;37.10;7.63;;;7.00;99.90;;;;;;4958655;28;20421;-79
2023/05/26 00:51:43;;;;;;;27.63;6.20;;;7.10;99.90;;;;;;4947940;28;20053;-79
2023/05/26 00:54:09;;;;;;;30.30;6.78;;;7.00;99.90;;;;;;4959686;28;20042;-79
2023/05/26 00:56:36;;;;;;;28.77;6.93;;;6.90;99.90;;;;;;4961946;28;20394;-79
2023/05/26 00:59:03;;;;;;;30.50;6.80;;;6.90;99.90;;;;;;4961288;28;20046;-79
2023/05/26 01:01:32;;;;;;;27.80;6.72;;;6.90;99.90;;;;;;4973990;28;20149;-79
2023/05/26 01:03:58;;;;;;;27.70;6.53;;;6.90;99.90;;;;;;4960101;28;20042;-79
2023/05/26 01:06:24;;;;;;;31.65;6.57;;;7.00;99.90;;;;;;4957103;28;20130;-80
2023/05/26 01:08:51;;;;;;;33.38;6.47;;;7.00;99.90;;;;;;4939011;28;20125;-79
2023/05/26 01:11:31;;;;;;;31.73;6.40;;;7.00;99.90;;;;;;4975598;28;20053;-79
2023/05/26 01:14:22;;;;;;;22.38;6.00;;;7.00;99.90;;;;;;4989161;28;20563;-79
2023/05/26 01:17:01;;;;;;;34.33;6.75;;;7.00;99.90;;;;;;4976288;28;20098;-79
2023/05/26 01:19:55;;;;;;;30.17;6.55;;;7.00;99.90;;;;;;4974652;28;20031;-80
2023/05/26 01:22:48;;;;;;;23.90;6.22;;;7.00;99.90;;;;;;4977555;28;20058;-80
2023/05/26 01:25:20;;;;;;;32.58;6.53;;;6.90;99.90;;;;;;4994781;28;20502;-79
2023/05/26 01:28:07;;;;;;;27.75;6.88;;;7.00;99.90;;;;;;4972881;28;20035;-79
2023/05/26 01:30:38;;;;;;;29.02;6.55;;;7.00;99.90;;;;;;4976379;28;20129;-79
2023/05/26 01:33:03;;;;;;;30.95;6.43;;;6.90;99.90;;;;;;4970631;28;20045;-80
2023/05/26 01:35:29;;;;;;;25.48;6.28;;;6.90;99.90;;;;;;4965298;28;20117;-79
2023/05/26 01:37:56;;;;;;;30.85;6.38;;;7.00;99.90;;;;;;4964012;28;20129;-79
2023/05/26 01:40:25;;;;;;;26.77;6.47;;;6.90;99.90;;;;;;4971800;28;20327;-79
2023/05/26 01:43:11;;;;;;;29.27;6.57;;;6.90;99.90;;;;;;4958364;28;20031;-79
2023/05/26 01:45:59;;;;;;;29.73;7.15;;;6.80;99.90;;;;;;4977390;28;20038;-79
2023/05/26 01:48:26;;;;;;;29.30;6.07;;;6.90;99.90;;;;;;4957037;28;20054;-79
2023/05/26 01:50:57;;;;;;;27.88;6.55;;;6.80;99.90;;;;;;4976478;28;20157;-79
2023/05/26 01:53:33;;;;;;;31.38;6.20;;;6.70;99.90;;;;;;4971856;28;20046;-79
2023/05/26 01:56:01;;;;;;;31.23;7.13;;;6.80;99.90;;;;;;4970674;28;20046;-79
2023/05/26 01:58:28;;;;;;;28.67;6.60;;;6.80;99.90;;;;;;4960744;28;21364;-79
2023/05/26 02:00:54;;;;;;;36.65;7.05;;;6.70;99.90;;;;;;4957644;28;20050;-79
2023/05/26 02:03:21;;;;;;;33.20;6.15;;;6.80;99.90;;;;;;4974644;28;20069;-79
2023/05/26 02:05:47;;;;;;;30.10;6.72;;;6.80;99.90;;;;;;4960270;28;20061;-80
2023/05/26 02:08:13;;;;;;;29.30;6.55;;;6.80;99.90;;;;;;4960564;28;20038;-80
2023/05/26 02:10:39;;;;;;;29.90;6.63;;;7.00;99.90;;;;;;4980271;28;20050;-79
2023/05/26 02:13:05;;;;;;;28.38;7.25;;;6.90;99.90;;;;;;4977290;28;20055;-79
2023/05/26 02:15:31;;;;;;;33.70;7.28;;;6.80;99.90;;;;;;4959771;28;20192;-79
2023/05/26 02:17:57;;;;;;;30.95;6.82;;;6.80;99.90;;;;;;4977079;28;20497;-80
2023/05/26 02:20:26;;;;;;;28.25;5.50;;;6.90;99.90;;;;;;4963593;28;20197;-79
2023/05/26 02:22:52;;;;;;;35.20;5.88;;;6.80;99.90;;;;;;4941349;28;20314;-80
2023/05/26 02:25:19;;;;;;;22.75;5.63;;;6.80;99.90;;;;;;4971151;28;20030;-79
2023/05/26 02:27:44;;;;;;;25.23;5.97;;;6.80;99.90;;;;;;4961523;28;20113;-80
2023/05/26 02:30:10;;;;;;;24.13;6.40;;;6.70;99.90;;;;;;4971949;28;20050;-80
2023/05/26 02:32:36;;;;;;;24.60;5.75;;;6.70;99.90;;;;;;4953006;28;20051;-80
2023/05/26 02:35:05;;;;;;;22.42;5.38;;;6.70;99.90;;;;;;4973668;28;20127;-80
2023/05/26 02:37:31;;;;;;;32.90;5.68;;;6.80;99.90;;;;;;4964882;28;20165;-80
2023/05/26 02:39:57;;;;;;;30.55;6.38;;;6.80;99.90;;;;;;4955794;28;20122;-80
2023/05/26 02:42:23;;;;;;;25.58;6.60;;;6.80;99.90;;;;;;4956574;28;20042;-79
2023/05/26 02:44:48;;;;;;;22.08;5.35;;;6.70;99.90;;;;;;4978011;28;20089;-80
2023/05/26 02:47:14;;;;;;;32.55;6.22;;;6.80;99.90;;;;;;4959871;28;20335;-80
2023/05/26 02:49:42;;;;;;;24.77;5.28;;;6.80;99.90;;;;;;4973830;28;20474;-80
2023/05/26 02:52:08;;;;;;;29.77;5.30;;;6.70;99.90;;;;;;4943135;28;20055;-80
2023/05/26 02:54:33;;;;;;;27.50;5.28;;;6.80;99.90;;;;;;4959326;28;20430;-80
2023/05/26 02:56:59;;;;;;;26.23;5.72;;;6.70;99.90;;;;;;4977008;28;20057;-80
2023/05/26 02:59:25;;;;;;;25.70;5.82;;;6.70;99.90;;;;;;4977065;28;20032;-80
2023/05/26 03:01:50;;;;;;;24.80;5.75;;;6.60;99.90;;;;;;4958811;28;20367;-80
2023/05/26 03:04:16;;;;;;;27.48;5.28;;;6.60;99.90;;;;;;4973351;28;20050;-80
2023/05/26 03:06:42;;;;;;;30.67;5.57;;;6.60;99.90;;;;;;4937306;28;20042;-80
2023/05/26 03:09:08;;;;;;;20.05;4.90;;;6.60;99.90;;;;;;4943773;28;20065;-80
2023/05/26 03:11:36;;;;;;;28.40;5.00;;;6.60;99.90;;;;;;4962171;28;20053;-80
2023/05/26 03:14:02;;;;;;;27.95;6.03;;;6.60;99.90;;;;;;4981876;28;20405;-80
2023/05/26 03:16:28;;;;;;;23.60;5.03;;;6.50;99.90;;;;;;4963899;28;20041;-80
2023/05/26 03:18:55;;;;;;;30.17;6.05;;;6.40;99.90;;;;;;4962756;28;20058;-80
2023/05/26 03:21:21;;;;;;;22.92;5.50;;;6.60;99.90;;;;;;4978899;28;20095;-80
2023/05/26 03:23:47;;;;;;;21.88;4.97;;;6.50;99.90;;;;;;4975997;28;20092;-80
2023/05/26 03:26:16;;;;;;;29.80;6.55;;;6.60;99.90;;;;;;4994027;28;20394;-79
2023/05/26 03:28:41;;;;;;;28.83;5.57;;;6.70;99.90;;;;;;4992236;28;20045;-80
2023/05/26 03:31:07;;;;;;;28.13;5.47;;;6.60;99.90;;;;;;4977437;28;20048;-80
2023/05/26 03:33:33;;;;;;;17.58;4.93;;;6.60;99.90;;;;;;4978760;28;20046;-79
2023/05/26 03:36:00;;;;;;;23.60;5.72;;;6.60;99.90;;;;;;4963619;28;20409;-79
2023/05/26 03:38:26;;;;;;;24.30;5.35;;;6.60;99.90;;;;;;4990050;28;20275;-80
2023/05/26 03:40:51;;;;;;;25.00;4.78;;;6.60;99.90;;;;;;4976426;28;20042;-80
2023/05/26 03:43:17;;;;;;;19.33;5.30;;;6.60;99.90;;;;;;4992646;28;20041;-80
2023/05/26 03:45:43;;;;;;;23.92;5.10;;;6.60;99.90;;;;;;4963291;28;20381;-81
2023/05/26 03:48:12;;;;;;;26.23;5.28;;;6.60;99.90;;;;;;4991836;28;20099;-81
2023/05/26 03:50:38;;;;;;;24.88;5.22;;;6.60;99.90;;;;;;4965188;28;20086;-80
2023/05/26 03:53:04;;;;;;;22.50;4.72;;;6.60;99.90;;;;;;4993003;28;20129;-81
2023/05/26 03:55:33;;;;;;;33.63;5.50;;;6.60;99.90;;;;;;4998240;28;20049;-80
2023/05/26 03:57:59;;;;;;;29.75;5.47;;;6.70;99.90;;;;;;4992445;28;20512;-80
2023/05/26 04:00:28;;;;;;;28.95;5.63;;;6.60;99.90;;;;;;4964009;28;20033;-80
2023/05/26 04:02:54;;;;;;;26.08;4.93;;;6.70;99.90;;;;;;4977454;28;20536;-80
2023/05/26 04:05:20;;;;;;;21.25;5.15;;;6.80;99.90;;;;;;4965833;28;20465;-80
2023/05/26 04:07:46;;;;;;;24.13;5.60;;;6.80;99.90;;;;;;4957217;28;20044;-80
2023/05/26 04:10:14;;;;;;;25.02;5.25;;;7.00;99.90;;;;;;4978772;28;20050;-80
2023/05/26 04:12:40;;;;;;;19.45;5.57;;;6.90;99.90;;;;;;4980569;28;21145;-80
2023/05/26 04:15:07;;;;;;;26.45;5.88;;;7.00;99.90;;;;;;4981247;28;20529;-80
2023/05/26 04:17:32;;;;;;;28.10;5.70;;;7.10;99.90;;;;;;4974304;28;20149;-80
2023/05/26 04:19:59;;;;;;;27.88;5.30;;;7.20;99.90;;;;;;4980315;28;20132;-81
2023/05/26 04:22:25;;;;;;;23.10;5.43;;;7.20;99.90;;;;;;4976254;28;20128;-80
2023/05/26 04:24:51;;;;;;;27.65;6.50;;;7.30;99.90;;;;;;4979944;28;20046;-81
2023/05/26 04:27:17;;;;;;;26.60;6.00;;;7.40;99.90;;;;;;4960474;28;20041;-80
2023/05/26 04:29:43;;;;;;;33.53;5.93;;;7.50;99.90;;;;;;4996897;28;20068;-80
2023/05/26 04:32:09;;;;;;;21.08;5.22;;;7.60;99.90;;;;;;4978388;28;20048;-80
2023/05/26 04:34:35;;;;;;;23.38;5.20;;;7.70;99.90;;;;;;4979560;28;20050;-80
2023/05/26 04:37:04;;;;;;;24.15;5.80;;;7.80;99.90;;;;;;4961474;28;20186;-81
2023/05/26 04:39:30;;;;;;;19.17;5.20;;;7.80;99.90;;;;;;4979209;28;20053;-80
2023/05/26 04:42:02;;;;;;;23.17;5.90;;;7.90;99.90;;;;;;4978757;28;20030;-80
2023/05/26 04:44:28;;;;;;;23.70;6.30;;;8.00;99.90;;;;;;4981534;28;20541;-81
2023/05/26 04:46:54;;;;;;;24.27;5.63;;;8.10;99.90;;;;;;4960764;28;20049;-81
2023/05/26 04:49:23;;;;;;;24.25;5.63;;;8.20;99.90;;;;;;4996327;28;20026;-80
2023/05/26 04:51:55;;;;;;;29.58;6.15;;;8.30;99.90;;;;;;4962207;28;20069;-81
2023/05/26 04:54:21;;;;;;;24.30;5.22;;;8.40;99.90;;;;;;4975318;28;20194;-80
2023/05/26 04:56:47;;;;;;;19.65;4.88;;;8.50;99.90;;;;;;4982750;28;20635;-81
2023/05/26 04:59:13;;;;;;;28.05;6.03;;;8.60;99.90;;;;;;4973434;28;20134;-80
2023/05/26 05:01:38;;;;;;;21.23;4.45;;;8.70;99.90;;;;;;4982162;28;20038;-80
2023/05/26 05:04:07;;;;;;;20.83;4.80;;;8.70;99.90;;;;;;4981878;28;20421;-81
2023/05/26 05:06:33;;;;;;;21.33;6.00;;;8.70;99.90;;;;;;4982101;28;20045;-80
2023/05/26 05:08:59;;;;;;;21.27;5.35;;;8.80;99.90;;;;;;4981012;28;20590;-80
2023/05/26 05:11:25;;;;;;;28.52;5.07;;;8.90;99.90;;;;;;4979435;28;20129;-80
2023/05/26 05:13:51;;;;;;;25.20;5.53;;;9.10;99.90;;;;;;4999577;28;20147;-80
2023/05/26 05:16:16;;;;;;;21.27;4.82;;;9.20;99.90;;;;;;4962932;28;20573;-80
2023/05/26 05:18:42;;;;;;;20.50;4.80;;;9.30;99.90;;;;;;4995842;28;20097;-80
2023/05/26 05:21:07;;;;;;;22.83;4.82;;;9.40;99.90;;;;;;4977776;28;20123;-80
2023/05/26 05:23:34;;;;;;;25.90;5.50;;;9.60;99.90;;;;;;4991768;28;20113;-81
2023/05/26 05:26:00;;;;;;;25.95;4.88;;;9.70;99.90;;;;;;4993161;28;20148;-81
2023/05/26 05:28:26;;;;;;;24.30;4.43;;;9.70;99.90;;;;;;4981169;28;20041;-80
2023/05/26 05:30:52;;;;;;;17.35;4.57;;;9.80;99.90;;;;;;4982419;28;20413;-81
2023/05/26 05:33:18;;;;;;;25.63;5.18;;;9.90;99.90;;;;;;4979499;28;20076;-80
2023/05/26 05:35:45;;;;;;;22.27;4.78;;;10.00;99.90;;;;;;4981367;28;20049;-80
2023/05/26 05:38:12;;;;;;;23.75;5.05;;;10.10;99.90;;;;;;4978286;28;20120;-80
2023/05/26 05:40:38;;;;;;;21.77;5.22;;;10.20;99.90;;;;;;4994357;28;20460;-81
2023/05/26 05:43:04;;;;;;;30.52;6.07;;;10.20;99.90;;;;;;4998856;28;20079;-80
2023/05/26 05:45:30;;;;;;;23.52;5.05;;;10.40;99.90;;;;;;4982198;28;20136;-81
2023/05/26 05:47:56;;;;;;;22.38;5.47;;;10.40;99.90;;;;;;4976980;28;20078;-80
2023/05/26 05:50:22;;;;;;;23.73;5.68;;;10.50;99.90;;;;;;5000781;28;20501;-80
2023/05/26 05:52:48;;;;;;;24.77;5.97;;;10.50;99.90;;;;;;4960521;28;20128;-80
2023/05/26 05:55:14;;;;;;;33.90;6.38;;;10.60;99.90;;;;;;4965550;28;20188;-80
2023/05/26 05:57:39;;;;;;;23.42;4.85;;;10.70;99.90;;;;;;4975592;28;20401;-79
2023/05/26 06:00:07;;;;;;;19.50;5.45;;;10.80;99.90;;;;;;4966010;28;20598;-80
2023/05/26 06:02:33;;;;;;;24.77;5.40;;;10.90;99.90;;;;;;4974448;28;20121;-80
2023/05/26 06:04:58;;;;;;;19.95;5.68;;;10.90;99.90;;;;;;4964837;28;20120;-80
2023/05/26 06:07:24;;;;;;;21.20;4.88;;;11.00;99.90;;;;;;4995348;28;20111;-80
2023/05/26 06:09:50;;;;;;;25.98;5.13;;;11.20;99.90;;;;;;4960940;28;20049;-80
2023/05/26 06:12:15;;;;;;;22.90;5.50;;;11.30;99.90;;;;;;4967675;28;20054;-80
2023/05/26 06:14:41;;;;;;;23.45;5.32;;;11.40;99.90;;;;;;4965723;28;20311;-80
2023/05/26 06:17:10;;;;;;;23.20;4.80;;;11.40;99.90;;;;;;4988979;28;20406;-80
2023/05/26 06:19:35;;;;;;;19.92;4.60;;;11.40;99.90;;;;;;4981558;28;20044;-80
2023/05/26 06:22:01;;;;;;;26.33;4.72;;;11.30;99.90;;;;;;4960916;28;20049;-79
2023/05/26 06:24:27;;;;;;;18.10;4.43;;;11.50;99.90;;;;;;4980756;28;20038;-80
2023/05/26 06:26:55;;;;;;;17.58;4.57;;;11.60;99.90;;;;;;4964664;28;20042;-80
2023/05/26 06:29:21;;;;;;;18.58;4.47;;;11.50;99.90;;;;;;4978854;28;20038;-80
2023/05/26 06:31:47;;;;;;;23.65;5.15;;;11.30;99.90;;;;;;4992033;28;20050;-80
2023/05/26 06:34:15;;;;;;;20.65;4.20;;;11.40;99.90;;;;;;4995125;28;20236;-80
2023/05/26 06:36:40;;;;;;;23.30;5.03;;;11.20;99.90;;;;;;4979575;28;20076;-80
2023/05/26 06:39:06;;;;;;;21.85;4.53;;;11.00;99.90;;;;;;4999480;28;20484;-80
2023/05/26 06:41:32;;;;;;;19.35;4.95;;;11.10;99.90;;;;;;4962947;28;20050;-79
2023/05/26 06:43:57;;;;;;;22.70;5.07;;;11.30;99.90;;;;;;5000064;28;20045;-80
2023/05/26 06:46:23;;;;;;;23.02;4.95;;;11.50;99.90;;;;;;4977168;28;20041;-80
2023/05/26 06:48:49;;;;;;;20.83;5.05;;;11.80;99.90;;;;;;4964540;28;20038;-80
2023/05/26 06:51:15;;;;;;;17.77;4.47;;;11.90;99.90;;;;;;4982052;28;20112;-80
2023/05/26 06:53:43;;;;;;;21.35;4.82;;;11.90;99.90;;;;;;4978614;28;20129;-79
2023/05/26 06:56:09;;;;;;;20.00;4.60;;;12.00;99.90;;;;;;4981259;28;20555;-79
2023/05/26 06:58:34;;;;;;;16.52;3.95;;;12.10;99.90;;;;;;4967201;28;20041;-80
2023/05/26 07:01:05;;;;;;;18.05;4.00;;;11.80;99.90;;;;;;4993928;28;20677;-80
2023/05/26 07:03:31;;;;;;;15.10;3.85;;;12.10;99.90;;;;;;4974060;28;20137;-80
2023/05/26 07:05:57;;;;;;;19.95;5.28;;;12.20;99.90;;;;;;4964934;28;20485;-80
2023/05/26 07:08:24;;;;;;;19.15;4.28;;;12.30;99.90;;;;;;4976295;28;20100;-80
2023/05/26 07:10:50;;;;;;;18.27;4.60;;;12.20;99.90;;;;;;4977480;28;20046;-80
2023/05/26 07:13:15;;;;;;;14.15;3.88;;;12.40;99.90;;;;;;4970922;28;20501;-80
2023/05/26 07:15:42;;;;;;;16.23;3.85;;;12.30;99.90;;;;;;4976321;28;20038;-80
2023/05/26 07:18:08;;;;;;;20.48;4.47;;;12.40;99.90;;;;;;4979363;28;20120;-80
2023/05/26 07:20:37;;;;;;;19.20;4.25;;;12.40;99.90;;;;;;4981545;28;20492;-79
2023/05/26 07:23:03;;;;;;;16.50;4.13;;;12.50;99.90;;;;;;4977293;28;20035;-80
2023/05/26 07:25:32;;;;;;;15.48;4.07;;;12.70;99.90;;;;;;4977924;28;20249;-79
2023/05/26 07:27:57;;;;;;;12.95;3.70;;;12.90;99.90;;;;;;4980604;28;20045;-80
2023/05/26 07:30:23;;;;;;;11.80;3.05;;;12.80;99.90;;;;;;4974334;28;20061;-79
2023/05/26 07:32:48;;;;;;;11.52;3.67;;;12.80;99.90;;;;;;4972132;28;20044;-80
2023/05/26 07:35:14;;;;;;;12.48;3.45;;;12.80;75.90;;;;;;4998680;28;20038;-80
2023/05/26 07:37:40;;;;;;;14.68;3.80;;;12.90;1.00;;;;;;4974591;28;20429;-80
2023/05/26 07:40:07;;;;;;;15.52;4.43;;;12.90;28.00;;;;;;4975266;28;20049;-79
2023/05/26 07:42:33;;;;;;;17.08;4.47;;;13.00;99.90;;;;;;4979584;28;20413;-80
2023/05/26 07:45:00;;;;;;;16.58;3.58;;;13.00;1.00;;;;;;4964833;28;20037;-80
2023/05/26 07:47:31;;;;;;;20.23;3.85;;;13.10;99.90;;;;;;4990807;28;20061;-79
2023/05/26 07:50:03;;;;;;;15.52;3.67;;;13.20;33.30;;;;;;4962150;28;20041;-79
2023/05/26 07:52:28;;;;;;;17.77;3.92;;;13.50;99.90;;;;;;4996263;28;20042;-80
2023/05/26 07:54:55;;;;;;;11.13;4.15;;;13.50;99.90;;;;;;4981001;28;20040;-79
2023/05/26 07:57:20;;;;;;;14.10;3.30;;;13.50;99.90;;;;;;4995767;28;20049;-79
2023/05/26 07:59:46;;;;;;;17.27;3.50;;;13.40;99.90;;;;;;4975628;28;20037;-80
2023/05/26 08:02:14;;;;;;;11.85;3.72;;;13.30;99.90;;;;;;4970290;28;20136;-80
2023/05/26 08:04:40;;;;;;;18.23;4.00;;;13.30;1.00;;;;;;4993511;28;20567;-80
2023/05/26 08:07:06;;;;;;;13.90;4.22;;;13.40;99.90;;;;;;4990962;28;20670;-80
2023/05/26 08:09:32;;;;;;;14.15;3.90;;;13.30;99.90;;;;;;4993310;28;20046;-80
2023/05/26 08:11:57;;;;;;;14.45;3.72;;;13.50;99.90;;;;;;4996296;28;20096;-79
2023/05/26 08:14:24;;;;;;;19.50;3.95;;;13.80;99.90;;;;;;4965071;28;20046;-80
2023/05/26 08:16:50;;;;;;;15.75;3.70;;;13.30;99.90;;;;;;4993157;28;20370;-79
2023/05/26 08:19:15;;;;;;;15.65;3.47;;;13.70;99.90;;;;;;4991837;28;20137;-80
2023/05/26 08:21:41;;;;;;;12.80;3.40;;;13.90;99.90;;;;;;4995548;28;20117;-80
2023/05/26 08:24:07;;;;;;;15.77;3.92;;;13.90;99.90;;;;;;4957917;28;20065;-79
2023/05/26 08:26:32;;;;;;;15.00;3.45;;;13.40;1.00;;;;;;4960912;28;20120;-80
2023/05/26 08:28:58;;;;;;;10.70;3.45;;;13.90;99.90;;;;;;4989941;28;20701;-79
2023/05/26 08:31:24;;;;;;;15.15;3.08;;;14.10;99.90;;;;;;4987224;28;20046;-79
2023/05/26 08:33:50;;;;;;;13.27;3.40;;;14.30;1.00;;;;;;4989012;28;20030;-79
2023/05/26 08:36:15;;;;;;;16.05;3.40;;;14.30;99.90;;;;;;4991489;28;20038;-79
2023/05/26 08:38:41;;;;;;;17.55;3.42;;;14.40;1.00;;;;;;4989711;28;20421;-79
2023/05/26 08:41:07;;;;;;;18.58;3.90;;;14.50;99.90;;;;;;4975331;28;20038;-79
2023/05/26 08:43:45;;;;;;;13.25;3.28;;;14.50;99.90;;;;;;5000931;28;20590;-79
2023/05/26 08:46:12;;;;;;;17.75;3.92;;;14.80;32.60;;;;;;4993921;28;20401;-80
2023/05/26 08:48:39;;;;;;;12.77;3.40;;;14.70;99.90;;;;;;4977239;28;20041;-79
2023/05/26 08:51:09;;;;;;;10.30;3.10;;;14.80;99.90;;;;;;4965419;28;20381;-80
2023/05/26 08:53:36;;;;;;;13.40;3.50;;;14.80;1.00;;;;;;4975904;28;20589;-79
2023/05/26 08:56:03;;;;;;;14.55;3.20;;;15.00;1.00;;;;;;4998053;28;20117;-80
2023/05/26 08:58:31;;;;;;;14.48;3.55;;;14.80;99.90;;;;;;4965803;28;20039;-79
2023/05/26 09:00:57;;;;;;;14.65;3.47;;;14.50;99.90;;;;;;4981245;28;20909;-80
2023/05/26 09:03:23;;;;;;;13.05;3.95;;;14.70;99.90;;;;;;4982187;28;20052;-80
2023/05/26 09:05:49;;;;;;;15.48;3.72;;;14.20;99.90;;;;;;4997095;28;20045;-80
2023/05/26 09:08:15;;;;;;;18.35;3.65;;;14.60;99.90;;;;;;4965924;28;20046;-80
2023/05/26 09:10:41;;;;;;;13.75;3.65;;;14.80;99.90;;;;;;4967403;28;20041;-80
2023/05/26 09:13:09;;;;;;;14.65;2.95;;;15.00;99.90;;;;;;5000739;28;20062;-80
2023/05/26 09:15:36;;;;;;;12.93;3.78;;;14.90;99.90;;;;;;4962401;28;20049;-79
2023/05/26 09:18:11;;;;;;;14.48;3.53;;;14.60;99.90;;;;;;4997027;28;20955;-80
2023/05/26 09:20:41;;;;;;;12.98;3.70;;;15.10;99.90;;;;;;4998844;28;20245;-80
2023/05/26 09:23:07;;;;;;;12.13;3.25;;;14.60;76.80;;;;;;4993534;28;20060;-79
2023/05/26 09:25:38;;;;;;;12.35;3.67;;;15.30;99.90;;;;;;4967816;28;20318;-79
2023/05/26 09:28:06;;;;;;;14.48;3.47;;;15.70;99.90;;;;;;4963332;28;20042;-80
2023/05/26 09:30:36;;;;;;;13.50;3.80;;;15.90;99.90;;;;;;4993630;28;20116;-80
2023/05/26 09:33:08;;;;;;;14.07;3.60;;;15.20;1.00;;;;;;4996985;28;20260;-80
2023/05/26 09:35:41;;;;;;;14.75;3.50;;;15.10;1.00;;;;;;4965433;28;20052;-80
2023/05/26 09:38:13;;;;;;;10.15;3.05;;;15.40;99.90;;;;;;4962166;28;20042;-79
2023/05/26 09:40:44;;;;;;;13.13;3.38;;;16.10;99.90;;;;;;4979162;28;20045;-79
2023/05/26 09:43:10;;;;;;;10.95;3.47;;;16.20;90.10;;;;;;4963766;28;20105;-80
2023/05/26 09:45:37;;;;;;;14.30;3.72;;;16.20;1.00;;;;;;4975969;28;20465;-79
2023/05/26 09:48:08;;;;;;;14.23;3.40;;;16.50;1.00;;;;;;4996737;28;20115;-80
2023/05/26 09:50:38;;;;;;;11.30;3.03;;;16.50;1.00;;;;;;4989902;28;20046;-80
2023/05/26 09:53:13;;;;;;;12.52;3.92;;;15.60;99.90;;;;;;4973159;28;20041;-79
2023/05/26 09:55:42;;;;;;;14.25;3.72;;;15.90;99.90;;;;;;4960032;28;20200;-80
2023/05/26 09:58:12;;;;;;;16.20;3.40;;;16.00;99.90;;;;;;4997980;28;20053;-80
2023/05/26 10:00:43;;;;;;;12.98;3.60;;;16.20;99.90;;;;;;4996979;28;20873;-80
2023/05/26 10:03:10;;;;;;;12.95;3.83;;;16.10;99.90;;;;;;4993078;28;20084;-80
2023/05/26 10:05:46;;;;;;;12.38;3.72;;;16.30;99.90;;;;;;4996763;28;20056;-80
2023/05/26 10:08:16;;;;;;;15.70;3.90;;;16.50;99.90;;;;;;4967086;28;20078;-80
2023/05/26 10:10:44;;;;;;;15.98;3.20;;;15.70;99.90;;;;;;4983618;28;20277;-79
2023/05/26 10:13:10;;;;;;;15.55;3.30;;;16.00;99.90;;;;;;4979063;28;20428;-79
2023/05/26 10:15:36;;;;;;;11.40;3.03;;;16.70;99.90;;;;;;4965126;28;20037;-80
2023/05/26 10:18:02;;;;;;;14.13;3.30;;;16.20;99.90;;;;;;4992730;28;20110;-80
2023/05/26 10:20:36;;;;;;;12.88;3.10;;;16.60;99.90;;;;;;4999608;28;20186;-79
2023/05/26 10:23:07;;;;;;;10.98;3.38;;;16.90;99.90;;;;;;4994826;28;20042;-80
2023/05/26 10:25:44;;;;;;;12.57;3.42;;;15.10;23.00;;;;;;4981997;28;20041;-80
2023/05/26 10:28:22;;;;;;;14.00;3.30;;;15.40;99.90;;;;;;4983831;28;20053;-80
2023/05/26 10:30:47;;;;;;;13.38;3.30;;;15.50;99.90;;;;;;4983237;28;20053;-80
2023/05/26 10:33:15;;;;;;;13.93;3.63;;;16.30;99.90;;;;;;4991850;28;20045;-80
2023/05/26 10:35:56;;;;;;;14.13;3.50;;;16.30;99.90;;;;;;4978857;28;20099;-80
2023/05/26 10:38:27;;;;;;;14.48;3.53;;;16.50;99.90;;;;;;4975260;28;20035;-79
2023/05/26 10:40:55;;;;;;;14.52;3.78;;;17.30;99.90;;;;;;4960283;28;20128;-79
2023/05/26 10:43:26;;;;;;;12.45;3.92;;;17.00;99.90;;;;;;4997288;28;20381;-80
2023/05/26 10:46:00;;;;;;;9.63;3.40;;;16.70;1.00;;;;;;4977150;28;20034;-79
2023/05/26 10:48:38;;;;;;;12.35;2.92;;;16.20;1.00;;;;;;4993508;28;20352;-80
2023/05/26 10:51:09;;;;;;;11.32;3.40;;;17.50;99.90;;;;;;4963618;28;20092;-79
2023/05/26 10:53:43;;;;;;;12.52;3.13;;;17.70;92.80;;;;;;4959746;28;20121;-80
2023/05/26 10:56:12;;;;;;;10.68;3.33;;;17.20;1.00;;;;;;4977510;28;20159;-79
2023/05/26 10:58:49;;;;;;;13.57;3.25;;;17.50;1.00;;;;;;4971488;28;20038;-79
2023/05/26 11:01:22;;;;;;;12.57;3.45;;;16.70;1.00;;;;;;4964884;28;20047;-79
2023/05/26 11:03:58;;;;;;;18.92;3.70;;;17.10;99.90;;;;;;4958819;28;20076;-79
2023/05/26 11:06:46;;;;;;;10.68;2.90;;;18.00;60.80;;;;;;4963129;28;20044;-80
2023/05/26 11:09:15;;;;;;;13.10;3.60;;;17.10;1.00;;;;;;4981534;28;20045;-80
2023/05/26 11:11:55;;;;;;;14.38;3.92;;;16.60;38.30;;;;;;4981657;28;20037;-80
2023/05/26 11:14:33;;;;;;;15.02;3.80;;;16.20;1.00;;;;;;4975438;28;20065;-80
2023/05/26 11:17:05;;;;;;;13.68;4.10;;;15.60;28.10;;;;;;4976080;28;20046;-80
2023/05/26 11:19:36;;;;;;;11.82;3.53;;;15.40;99.90;;;;;;4980040;28;20037;-79
2023/05/26 11:22:10;;;;;;;11.07;3.55;;;16.00;75.10;;;;;;4977327;28;20073;-79
2023/05/26 11:24:37;;;;;;;13.45;3.60;;;16.40;67.20;;;;;;4978642;28;20069;-79
2023/05/26 11:27:03;;;;;;;14.40;3.80;;;17.20;1.00;;;;;;4999631;28;20037;-79
2023/05/26 11:29:30;;;;;;;13.75;3.72;;;17.70;6.50;;;;;;4994207;28;20508;-79
2023/05/26 11:31:56;;;;;;;12.93;3.38;;;16.70;1.00;;;;;;4960505;28;20454;-79
2023/05/26 11:34:22;;;;;;;17.95;4.13;;;17.30;42.90;;;;;;4994022;28;20034;-79
2023/05/26 11:36:55;;;;;;;15.52;4.05;;;17.80;1.00;;;;;;4975256;28;20057;-79
2023/05/26 11:39:21;;;;;;;15.15;3.38;;;18.00;1.00;;;;;;4980439;28;20058;-80
2023/05/26 11:41:48;;;;;;;16.65;3.42;;;17.10;99.90;;;;;;4978423;28;20037;-80
2023/05/26 11:44:15;;;;;;;19.25;4.38;;;16.80;1.00;;;;;;4978452;28;20121;-79
2023/05/26 11:46:42;;;;;;;18.13;4.80;;;16.30;1.00;;;;;;4993496;28;20042;-80
2023/05/26 11:49:15;;;;;;;17.27;3.67;;;15.50;1.00;;;;;;4960532;28;20133;-79
2023/05/26 11:51:52;;;;;;;13.25;4.03;;;16.40;1.00;;;;;;4974550;28;20586;-80
2023/05/26 11:54:18;;;;;;;14.57;4.55;;;16.90;1.00;;;;;;4986374;28;20046;-80
2023/05/26 11:56:46;;;;;;;15.63;4.10;;;17.20;99.90;;;;;;4963475;28;20035;-80
2023/05/26 11:59:20;;;;;;;13.30;3.78;;;17.30;99.90;;;;;;4973348;28;20127;-80
2023/05/26 12:01:52;;;;;;;16.02;4.07;;;18.00;1.00;;;;;;4993804;28;20030;-79
2023/05/26 12:04:30;;;;;;;15.05;4.13;;;16.40;99.90;;;;;;4975802;28;20046;-79
2023/05/26 12:06:55;;;;;;;15.15;3.70;;;18.10;99.90;;;;;;4975833;28;20432;-79
2023/05/26 12:09:22;;;;;;;16.13;3.63;;;18.30;99.90;;;;;;4992098;28;20088;-79
2023/05/26 12:11:54;;;;;;;14.18;3.92;;;18.20;99.90;;;;;;4977913;28;20361;-79
2023/05/26 12:14:23;;;;;;;16.35;3.80;;;17.10;99.90;;;;;;4959225;28;20560;-79
2023/05/26 12:16:54;;;;;;;12.98;3.97;;;18.20;99.90;;;;;;4976485;28;20118;-80
2023/05/26 12:19:23;;;;;;;15.85;4.13;;;19.20;1.00;;;;;;4977197;28;20048;-80
2023/05/26 12:21:56;;;;;;;16.00;4.10;;;17.40;99.90;;;;;;4960641;28;20444;-80
2023/05/26 12:24:29;;;;;;;13.27;4.00;;;16.40;99.90;;;;;;4972810;28;20393;-79
2023/05/26 12:26:55;;;;;;;13.38;3.80;;;17.90;99.90;;;;;;4963124;28;20044;-79
2023/05/26 12:29:20;;;;;;;12.90;3.75;;;17.20;99.90;;;;;;4963735;28;20053;-80
2023/05/26 12:31:51;;;;;;;13.50;3.90;;;16.30;99.90;;;;;;4975411;28;20037;-80
2023/05/26 12:34:26;;;;;;;13.23;4.32;;;16.80;99.90;;;;;;4960855;28;20030;-80
2023/05/26 12:36:51;;;;;;;14.93;3.88;;;16.30;99.90;;;;;;4992780;28;20149;-79
2023/05/26 12:39:18;;;;;;;15.30;3.80;;;17.10;99.90;;;;;;4992754;28;20049;-79
2023/05/26 12:41:47;;;;;;;13.20;3.67;;;17.60;99.90;;;;;;4963778;28;20030;-79
2023/05/26 12:44:16;;;;;;;15.02;3.65;;;17.20;99.90;;;;;;4997381;28;20497;-79
2023/05/26 12:46:43;;;;;;;17.23;3.85;;;18.30;99.90;;;;;;4975572;28;20038;-79